createdAt,value
2022-08-26T00:02:08.030Z,67.57
2022-08-26T00:04:36.886Z,62.05
2022-08-26T00:07:06.278Z,69.45
2022-08-26T00:09:39.051Z,72.00
2022-08-26T00:12:12.398Z,67.65
2022-08-26T00:14:41.453Z,62.67
2022-08-26T00:17:10.587Z,63.35
2022-08-26T00:19:50.854Z,66.47
2022-08-26T00:22:21.765Z,71.03
2022-08-26T00:24:50.509Z,57.35
2022-08-26T00:27:19.474Z,62.63
2022-08-26T00:29:49.524Z,61.75
2022-08-26T00:32:19.345Z,69.80
2022-08-26T00:34:48.316Z,62.85
2022-08-26T00:37:17.284Z,67.60
2022-08-26T00:39:46.203Z,68.07
2022-08-26T00:42:15.003Z,57.25
2022-08-26T00:44:44.586Z,61.22
2022-08-26T00:47:31.041Z,56.78
2022-08-26T00:50:03.644Z,67.57
2022-08-26T00:52:32.757Z,57.80
2022-08-26T00:55:14.645Z,62.05
2022-08-26T00:57:51.294Z,54.88
2022-08-26T01:00:25.847Z,56.38
2022-08-26T01:02:56.807Z,58.88
2022-08-26T01:05:26.496Z,60.22
2022-08-26T01:07:55.085Z,58.35
2022-08-26T01:10:27.803Z,66.82
2022-08-26T01:13:03.784Z,54.70
2022-08-26T01:15:36.547Z,57.80
2022-08-26T01:18:06.329Z,56.83
2022-08-26T01:20:58.828Z,54.92
2022-08-26T01:23:39.102Z,56.95
2022-08-26T01:26:19.447Z,51.85
2022-08-26T01:28:51.955Z,55.03
2022-08-26T01:31:29.221Z,49.33
2022-08-26T01:34:07.225Z,51.17
2022-08-26T01:36:39.659Z,50.70
2022-08-26T01:39:09.242Z,45.95
2022-08-26T01:41:42.948Z,50.63
2022-08-26T01:44:19.698Z,45.85
2022-08-26T01:46:52.015Z,45.85
2022-08-26T01:49:22.642Z,40.80
2022-08-26T01:51:58.295Z,45.67
2022-08-26T01:54:27.365Z,41.85
2022-08-26T01:56:56.476Z,48.70
2022-08-26T01:59:26.680Z,47.65
2022-08-26T02:01:55.257Z,47.58
2022-08-26T02:04:34.566Z,40.08
2022-08-26T02:07:08.952Z,41.42
2022-08-26T02:09:41.842Z,46.07
2022-08-26T02:12:12.925Z,43.63
2022-08-26T02:14:51.282Z,46.75
2022-08-26T02:17:26.756Z,53.03
2022-08-26T02:19:57.339Z,38.00
2022-08-26T02:22:28.651Z,42.88
2022-08-26T02:25:00.276Z,43.63
2022-08-26T02:27:33.363Z,37.40
2022-08-26T02:30:10.399Z,38.85
2022-08-26T02:32:41.582Z,37.92
2022-08-26T02:35:13.400Z,38.75
2022-08-26T02:37:46.685Z,37.58
2022-08-26T02:40:25.796Z,38.25
2022-08-26T02:42:56.926Z,38.13
2022-08-26T02:45:28.291Z,39.97
2022-08-26T02:47:59.608Z,38.53
2022-08-26T02:50:28.430Z,39.42
2022-08-26T02:52:57.745Z,39.95
2022-08-26T02:55:28.041Z,35.85
2022-08-26T02:57:57.889Z,41.55
2022-08-26T03:00:28.174Z,38.13
2022-08-26T03:02:57.271Z,38.05
2022-08-26T03:05:26.203Z,45.28
2022-08-26T03:07:54.983Z,34.85
2022-08-26T03:10:23.708Z,36.13
2022-08-26T03:12:54.705Z,39.45
2022-08-26T03:15:23.162Z,32.95
2022-08-26T03:17:51.707Z,36.90
2022-08-26T03:20:20.567Z,36.60
2022-08-26T03:22:52.112Z,39.50
2022-08-26T03:25:22.855Z,42.00
2022-08-26T03:27:53.740Z,45.25
2022-08-26T03:30:44.931Z,41.55
2022-08-26T03:33:15.929Z,40.17
2022-08-26T03:35:45.895Z,41.95
2022-08-26T03:38:15.555Z,34.83
2022-08-26T03:40:44.629Z,37.80
2022-08-26T03:43:15.012Z,35.58
2022-08-26T03:45:44.275Z,34.85
2022-08-26T03:48:14.444Z,31.00
2022-08-26T03:50:43.544Z,34.15
2022-08-26T03:53:13.470Z,35.22
2022-08-26T03:55:43.204Z,31.90
2022-08-26T03:58:12.343Z,34.05
2022-08-26T04:00:40.732Z,37.80
2022-08-26T04:03:10.413Z,35.60
2022-08-26T04:05:39.165Z,216.10
2022-08-26T04:08:08.468Z,36.03
2022-08-26T04:10:39.166Z,43.00
2022-08-26T04:13:08.016Z,34.53
2022-08-26T04:15:36.667Z,31.25
2022-08-26T04:18:05.441Z,29.80
2022-08-26T04:20:34.293Z,31.40
2022-08-26T04:23:03.028Z,28.23
2022-08-26T04:25:34.714Z,32.25
2022-08-26T04:28:04.663Z,32.35
2022-08-26T04:30:33.346Z,27.67
2022-08-26T04:33:12.921Z,28.73
2022-08-26T04:35:43.166Z,30.95
2022-08-26T04:38:14.273Z,30.80
2022-08-26T04:40:47.398Z,47.28
2022-08-26T04:43:16.202Z,26.27
2022-08-26T04:45:44.895Z,30.05
2022-08-26T04:48:16.938Z,24.50
2022-08-26T04:50:49.636Z,24.52
2022-08-26T04:53:18.390Z,24.83
2022-08-26T04:55:48.467Z,24.23
2022-08-26T04:58:19.288Z,31.33
2022-08-26T05:00:49.963Z,30.13
2022-08-26T05:03:20.133Z,24.90
2022-08-26T05:05:52.963Z,32.50
2022-08-26T05:08:23.525Z,23.38
2022-08-26T05:10:57.762Z,29.60
2022-08-26T05:13:28.749Z,39.60
2022-08-26T05:15:59.146Z,24.70
2022-08-26T05:18:31.045Z,31.40
2022-08-26T05:20:59.723Z,21.55
2022-08-26T05:23:29.589Z,26.60
2022-08-26T05:26:00.366Z,28.38
2022-08-26T05:28:30.807Z,25.88
2022-08-26T05:30:59.452Z,29.00
2022-08-26T05:33:28.503Z,24.50
2022-08-26T05:35:57.134Z,29.88
2022-08-26T05:38:25.724Z,40.45
2022-08-26T05:40:59.677Z,36.63
2022-08-26T05:43:28.393Z,38.08
2022-08-26T05:45:58.237Z,29.83
2022-08-26T05:48:27.556Z,37.22
2022-08-26T05:50:56.899Z,34.45
2022-08-26T05:53:26.307Z,30.75
2022-08-26T05:55:58.153Z,29.63
2022-08-26T05:58:28.356Z,40.92
2022-08-26T06:01:11.163Z,25.52
2022-08-26T06:03:43.125Z,27.00
2022-08-26T06:06:15.000Z,34.97
2022-08-26T06:08:49.043Z,35.35
2022-08-26T06:11:20.845Z,25.67
2022-08-26T06:13:49.329Z,33.60
2022-08-26T06:16:20.223Z,35.08
2022-08-26T06:18:51.547Z,36.67
2022-08-26T06:21:28.724Z,27.88
2022-08-26T06:24:21.873Z,39.17
2022-08-26T06:26:58.544Z,28.52
2022-08-26T06:29:28.053Z,31.65
2022-08-26T06:31:58.642Z,28.98
2022-08-26T06:34:32.032Z,23.70
2022-08-26T06:37:06.762Z,39.30
2022-08-26T06:39:35.745Z,32.28
2022-08-26T06:44:40.994Z,32.78
2022-08-26T06:47:09.747Z,32.53
2022-08-26T06:49:38.404Z,35.22
2022-08-26T06:52:08.327Z,27.75
2022-08-26T06:54:38.758Z,24.58
2022-08-26T06:57:08.044Z,25.23
2022-08-26T06:59:36.994Z,28.13
2022-08-26T07:02:06.757Z,25.40
2022-08-26T07:04:37.131Z,35.30
2022-08-26T07:07:06.017Z,50.05
2022-08-26T07:09:38.253Z,30.67
2022-08-26T07:12:07.442Z,39.03
2022-08-26T07:14:36.434Z,33.92
2022-08-26T07:17:07.358Z,39.47
2022-08-26T07:19:38.697Z,43.38
2022-08-26T07:22:08.720Z,31.40
2022-08-26T07:24:42.664Z,26.48
2022-08-26T07:27:15.741Z,26.48
2022-08-26T07:29:45.450Z,20.20
2022-08-26T07:32:15.985Z,29.00
2022-08-26T07:34:44.698Z,21.13
2022-08-26T07:37:13.272Z,18.23
2022-08-26T07:39:43.146Z,17.65
2022-08-26T07:42:14.834Z,19.17
2022-08-26T07:44:46.177Z,21.48
2022-08-26T07:47:24.660Z,20.45
2022-08-26T07:49:58.433Z,23.17
2022-08-26T07:52:30.217Z,25.55
2022-08-26T07:55:01.302Z,14.63
2022-08-26T07:57:31.267Z,21.13
2022-08-26T08:00:00.350Z,25.02
2022-08-26T08:02:30.198Z,29.35
2022-08-26T08:04:59.312Z,25.77
2022-08-26T08:07:38.785Z,25.67
2022-08-26T08:10:20.846Z,28.92
2022-08-26T08:12:51.156Z,26.48
2022-08-26T08:15:24.889Z,18.63
2022-08-26T08:17:54.762Z,21.17
2022-08-26T08:20:27.194Z,24.40
2022-08-26T08:22:56.840Z,26.48
2022-08-26T08:25:26.354Z,18.35
2022-08-26T08:27:54.814Z,22.65
2022-08-26T08:30:23.744Z,20.92
2022-08-26T08:32:53.398Z,21.25
2022-08-26T08:35:24.366Z,21.15
2022-08-26T08:37:55.573Z,25.92
2022-08-26T08:40:29.358Z,18.70
2022-08-26T08:43:14.512Z,22.70
2022-08-26T08:46:01.194Z,21.55
2022-08-26T08:48:36.404Z,17.10
2022-08-26T08:51:07.400Z,16.10
2022-08-26T08:53:43.195Z,17.25
2022-08-26T08:56:40.824Z,16.98
2022-08-26T08:59:26.591Z,16.33
2022-08-26T09:02:41.012Z,20.33
2022-08-26T09:05:26.085Z,19.98
2022-08-26T09:08:06.500Z,42.65
2022-08-26T09:10:40.951Z,24.83
2022-08-26T09:13:17.025Z,20.30
2022-08-26T09:16:19.024Z,23.00
2022-08-26T09:18:49.003Z,27.67
2022-08-26T09:21:20.049Z,28.73
2022-08-26T09:23:49.748Z,32.38
2022-08-26T09:26:25.972Z,25.13
2022-08-26T09:29:12.164Z,27.63
2022-08-26T09:31:43.533Z,48.72
2022-08-26T09:34:27.442Z,24.38
2022-08-26T09:36:58.944Z,26.95
2022-08-26T09:39:38.045Z,22.08
2022-08-26T09:42:16.726Z,28.20
2022-08-26T09:44:56.303Z,19.70
2022-08-26T09:47:40.596Z,19.15
2022-08-26T09:50:28.854Z,23.83
2022-08-26T09:53:13.407Z,25.65
2022-08-26T09:55:44.684Z,22.80
2022-08-26T09:58:16.451Z,29.48
2022-08-26T10:00:57.998Z,24.95
2022-08-26T10:03:31.724Z,24.65
2022-08-26T10:06:03.684Z,45.28
2022-08-26T10:08:37.101Z,34.88
2022-08-26T10:11:27.493Z,24.10
2022-08-26T10:14:01.572Z,24.88
2022-08-26T10:16:49.643Z,26.25
2022-08-26T10:19:29.274Z,29.85
2022-08-26T10:22:21.720Z,21.48
2022-08-26T10:24:57.068Z,35.00
2022-08-26T10:27:51.235Z,30.85
2022-08-26T10:30:26.574Z,24.30
2022-08-26T10:33:04.538Z,25.65
2022-08-26T10:35:36.260Z,27.42
2022-08-26T10:38:20.730Z,30.77
2022-08-26T10:41:13.102Z,30.13
2022-08-26T10:44:08.482Z,27.25
2022-08-26T10:46:50.134Z,30.17
2022-08-26T10:49:20.384Z,23.60
2022-08-26T10:52:24.393Z,31.98
2022-08-26T10:55:06.835Z,25.30
2022-08-26T10:57:54.704Z,23.42
2022-08-26T11:00:52.709Z,20.67
2022-08-26T11:03:42.212Z,23.42
2022-08-26T11:06:19.690Z,24.42
2022-08-26T11:09:03.524Z,26.42
2022-08-26T11:11:41.537Z,23.67
2022-08-26T11:14:28.442Z,22.13
2022-08-26T11:16:59.373Z,25.92
2022-08-26T11:19:58.872Z,20.65
2022-08-26T11:22:33.491Z,19.52
2022-08-26T11:25:09.565Z,23.30
2022-08-26T11:27:40.896Z,24.40
2022-08-26T11:30:18.662Z,33.85
2022-08-26T11:32:58.821Z,26.92
2022-08-26T11:35:28.232Z,31.50
2022-08-26T11:38:04.386Z,24.27
2022-08-26T11:40:36.069Z,25.30
2022-08-26T11:43:24.804Z,35.95
2022-08-26T11:46:09.579Z,50.35
2022-08-26T11:48:44.067Z,28.80
2022-08-26T11:51:24.688Z,36.13
2022-08-26T11:54:12.816Z,26.88
2022-08-26T11:56:43.752Z,29.20
2022-08-26T11:59:16.338Z,23.83
2022-08-26T12:01:49.658Z,22.80
2022-08-26T12:04:29.300Z,34.10
2022-08-26T12:06:59.579Z,43.47
2022-08-26T12:09:37.938Z,37.00
2022-08-26T12:12:24.906Z,42.88
2022-08-26T12:15:14.443Z,54.20
2022-08-26T12:17:44.712Z,26.30
2022-08-26T12:20:46.594Z,27.27
2022-08-26T12:23:37.923Z,36.58
2022-08-26T12:26:16.379Z,31.17
2022-08-26T12:29:12.646Z,30.05
2022-08-26T12:31:50.442Z,29.83
2022-08-26T12:34:19.631Z,44.83
2022-08-26T12:36:51.636Z,49.38
2022-08-26T12:39:30.569Z,61.60
2022-08-26T12:42:01.860Z,126.38
2022-08-26T12:44:53.707Z,41.97
2022-08-26T12:47:39.015Z,63.60
2022-08-26T12:50:19.022Z,49.42
2022-08-26T12:53:03.519Z,67.05
2022-08-26T12:55:44.434Z,47.33
2022-08-26T12:58:12.982Z,70.00
2022-08-26T13:01:02.635Z,48.00
2022-08-26T13:03:43.949Z,63.60
2022-08-26T13:06:26.512Z,87.13
2022-08-26T13:09:10.344Z,60.85
2022-08-26T13:11:41.872Z,145.47
2022-08-26T13:14:12.040Z,154.38
2022-08-26T13:16:50.313Z,81.28
2022-08-26T13:19:23.555Z,51.15
2022-08-26T13:21:55.536Z,46.30
2022-08-26T13:24:28.326Z,52.03
2022-08-26T13:26:57.152Z,50.85
2022-08-26T13:29:26.215Z,56.78
2022-08-26T13:31:55.334Z,65.90
2022-08-26T13:34:24.886Z,67.70
2022-08-26T13:36:55.507Z,57.30
2022-08-26T13:39:24.462Z,61.97
2022-08-26T13:41:53.655Z,61.08
2022-08-26T13:44:22.519Z,85.63
2022-08-26T13:46:51.155Z,299.73
2022-08-26T13:49:19.976Z,422.17
2022-08-26T13:51:48.693Z,414.38
2022-08-26T13:54:17.407Z,163.32
2022-08-26T13:56:46.301Z,102.40
2022-08-26T13:59:14.893Z,62.55
2022-08-26T14:01:43.820Z,71.43
2022-08-26T14:04:12.730Z,62.75
2022-08-26T14:06:41.325Z,68.80
2022-08-26T14:09:11.501Z,50.17
2022-08-26T14:11:54.144Z,66.00
2022-08-26T14:14:23.605Z,58.45
2022-08-26T14:16:59.558Z,47.55
2022-08-26T14:19:32.184Z,50.58
2022-08-26T14:22:01.505Z,45.08
2022-08-26T14:24:31.166Z,51.90
2022-08-26T14:27:00.202Z,55.55
2022-08-26T14:29:29.377Z,44.10
2022-08-26T14:31:59.452Z,51.58
2022-08-26T14:34:28.185Z,66.82
2022-08-26T14:36:56.590Z,75.30
2022-08-26T14:39:25.110Z,57.50
2022-08-26T14:41:57.141Z,63.80
2022-08-26T14:44:28.967Z,58.08
2022-08-26T14:46:57.771Z,52.42
2022-08-26T14:49:28.060Z,55.08
2022-08-26T14:51:57.018Z,48.20
2022-08-26T14:54:25.646Z,40.55
2022-08-26T14:56:58.421Z,47.20
2022-08-26T14:59:36.455Z,44.30
2022-08-26T15:02:08.004Z,41.67
2022-08-26T15:04:36.574Z,45.63
2022-08-26T15:07:06.290Z,46.60
2022-08-26T15:09:38.140Z,47.40
2022-08-26T15:12:07.214Z,80.13
2022-08-26T15:14:35.836Z,108.85
2022-08-26T15:17:05.381Z,67.38
2022-08-26T15:19:33.984Z,117.90
2022-08-26T15:22:02.630Z,73.65
2022-08-26T15:24:31.115Z,65.30
2022-08-26T15:26:59.907Z,48.78
2022-08-26T15:29:28.449Z,74.85
2022-08-26T15:31:57.640Z,64.38
2022-08-26T15:34:27.120Z,77.22
2022-08-26T15:36:55.979Z,75.32
2022-08-26T15:39:24.984Z,61.08
2022-08-26T15:41:53.465Z,56.95
2022-08-26T15:44:21.945Z,63.58
2022-08-26T15:46:52.516Z,69.95
2022-08-26T15:49:24.348Z,63.80
2022-08-26T15:51:53.359Z,67.43
2022-08-26T15:54:23.610Z,71.13
2022-08-26T15:56:53.811Z,81.10
2022-08-26T15:59:23.262Z,75.57
2022-08-26T16:01:53.194Z,87.20
2022-08-26T16:04:22.261Z,93.00
2022-08-26T16:06:52.601Z,80.35
2022-08-26T16:09:24.478Z,98.57
2022-08-26T16:11:54.902Z,84.38
2022-08-26T16:14:24.374Z,279.65
2022-08-26T16:16:53.053Z,346.30
2022-08-26T16:19:22.154Z,139.07
2022-08-26T16:21:52.201Z,188.60
2022-08-26T16:24:28.424Z,112.22
2022-08-26T16:26:59.339Z,86.15
2022-08-26T16:29:28.320Z,77.40
2022-08-26T16:31:57.001Z,77.57
2022-08-26T16:34:25.733Z,78.85
2022-08-26T16:36:54.472Z,79.88
2022-08-26T16:39:23.201Z,75.63
2022-08-26T16:41:51.963Z,131.90
2022-08-26T16:44:20.679Z,411.30
2022-08-26T16:46:54.572Z,367.15
2022-08-26T16:49:27.601Z,221.32
2022-08-26T16:51:56.240Z,132.80
2022-08-26T16:54:24.986Z,105.15
2022-08-26T16:56:53.322Z,308.10
2022-08-26T16:59:22.581Z,175.20
2022-08-26T17:01:52.174Z,101.47
2022-08-26T17:04:20.895Z,104.35
2022-08-26T17:06:49.992Z,95.68
2022-08-26T17:09:20.859Z,78.57
2022-08-26T17:11:49.720Z,70.28
2022-08-26T17:14:18.740Z,93.90
2022-08-26T17:16:52.037Z,99.00
2022-08-26T17:19:22.405Z,96.40
2022-08-26T17:21:51.035Z,112.75
2022-08-26T17:24:19.923Z,90.53
2022-08-26T17:26:50.019Z,100.82
2022-08-26T17:29:22.252Z,94.93
2022-08-26T17:31:50.915Z,101.70
2022-08-26T17:34:20.027Z,102.43
2022-08-26T17:36:48.736Z,95.40
2022-08-26T17:39:17.603Z,92.97
2022-08-26T17:41:46.276Z,94.15
2022-08-26T17:44:14.750Z,99.40
2022-08-26T17:46:43.364Z,99.47
2022-08-26T17:49:12.127Z,102.78
2022-08-26T17:51:41.562Z,101.20
2022-08-26T17:54:10.270Z,92.07
2022-08-26T17:56:39.043Z,98.50
2022-08-26T17:59:07.639Z,110.30
2022-08-26T18:01:36.773Z,92.97
2022-08-26T18:04:05.484Z,93.40
2022-08-26T18:06:35.675Z,95.05
2022-08-26T18:09:04.665Z,134.93
2022-08-26T18:11:34.216Z,170.65
2022-08-26T18:14:02.754Z,87.85
2022-08-26T18:16:34.753Z,86.78
2022-08-26T18:19:03.943Z,79.78
2022-08-26T18:21:33.050Z,75.50
2022-08-26T18:24:01.972Z,76.40
2022-08-26T18:26:37.007Z,80.63
2022-08-26T18:29:07.496Z,73.93
2022-08-26T18:31:38.233Z,74.97
2022-08-26T18:34:08.911Z,70.97
2022-08-26T18:36:38.000Z,86.72
2022-08-26T18:39:08.781Z,70.47
2022-08-26T18:41:47.124Z,76.35
2022-08-26T18:44:17.394Z,66.80
2022-08-26T18:46:47.092Z,68.38
2022-08-26T18:49:17.329Z,69.53
2022-08-26T18:51:48.316Z,62.08
2022-08-26T18:56:46.613Z,60.50
2022-08-26T18:59:15.615Z,59.58
2022-08-26T19:01:44.745Z,54.53
2022-08-26T19:04:14.771Z,55.80
2022-08-26T19:06:48.316Z,59.17
2022-08-26T19:09:18.692Z,45.15
2022-08-26T19:11:50.577Z,52.30
2022-08-26T19:14:19.975Z,42.55
2022-08-26T19:16:50.599Z,54.35
2022-08-26T19:19:21.237Z,55.05
2022-08-26T19:21:50.065Z,54.58
2022-08-26T19:24:20.233Z,63.88
2022-08-26T19:26:57.582Z,51.67
2022-08-26T19:29:31.655Z,45.65
2022-08-26T19:32:00.498Z,41.22
2022-08-26T19:34:29.044Z,42.55
2022-08-26T19:36:59.343Z,59.67
2022-08-26T19:39:29.123Z,44.40
2022-08-26T19:41:58.182Z,44.00
2022-08-26T19:44:45.833Z,40.33
2022-08-26T19:47:14.843Z,43.33
2022-08-26T19:49:44.020Z,43.80
2022-08-26T19:52:13.667Z,45.58
2022-08-26T19:54:42.209Z,46.05
2022-08-26T19:57:11.725Z,42.10
2022-08-26T19:59:41.019Z,37.55
2022-08-26T20:02:11.280Z,38.78
2022-08-26T20:04:42.761Z,35.63
2022-08-26T20:07:14.196Z,48.65
2022-08-26T20:09:48.059Z,37.33
2022-08-26T20:12:18.151Z,32.85
2022-08-26T20:14:46.880Z,41.97
2022-08-26T20:17:17.793Z,32.60
2022-08-26T20:20:04.918Z,41.13
2022-08-26T20:22:34.298Z,40.78
2022-08-26T20:25:03.506Z,36.78
2022-08-26T20:27:38.394Z,46.70
2022-08-26T20:30:09.759Z,43.47
2022-08-26T20:32:40.268Z,45.88
2022-08-26T20:35:12.605Z,47.70
2022-08-26T20:37:42.235Z,45.50
2022-08-26T20:40:13.054Z,45.67
2022-08-26T20:42:41.770Z,44.47
2022-08-26T20:45:10.673Z,51.17
2022-08-26T20:47:39.222Z,50.05
2022-08-26T20:50:09.276Z,55.63
2022-08-26T20:52:37.767Z,45.53
2022-08-26T20:55:07.321Z,43.13
2022-08-26T20:57:35.733Z,42.58
2022-08-26T21:00:07.029Z,51.25
2022-08-26T21:02:35.524Z,44.33
2022-08-26T21:05:05.004Z,58.75
2022-08-26T21:07:33.804Z,44.53
2022-08-26T21:10:02.874Z,46.65
2022-08-26T21:12:32.236Z,42.80
2022-08-26T21:15:01.349Z,41.72
2022-08-26T21:17:29.971Z,44.78
2022-08-26T21:19:58.642Z,44.35
2022-08-26T21:22:27.051Z,40.67
2022-08-26T21:24:55.624Z,46.85
2022-08-26T21:27:26.316Z,43.88
2022-08-26T21:29:55.620Z,46.88
2022-08-26T21:32:24.583Z,50.90
2022-08-26T21:34:57.723Z,48.55
2022-08-26T21:37:28.610Z,47.40
2022-08-26T21:39:59.404Z,43.17
2022-08-26T21:42:28.549Z,51.47
2022-08-26T21:44:57.096Z,45.75
2022-08-26T21:47:25.653Z,46.50
2022-08-26T21:49:57.191Z,226.40
2022-08-26T21:52:27.025Z,67.88
2022-08-26T21:55:03.140Z,68.50
2022-08-26T21:57:37.675Z,41.22
2022-08-26T22:00:13.778Z,83.35
2022-08-26T22:02:42.436Z,43.72
2022-08-26T22:05:11.623Z,44.08
2022-08-26T22:07:40.278Z,35.53
2022-08-26T22:10:09.629Z,42.38
2022-08-26T22:12:38.779Z,37.15
2022-08-26T22:15:08.236Z,37.80
2022-08-26T22:17:36.882Z,41.08
2022-08-26T22:20:07.430Z,37.53
2022-08-26T22:22:45.854Z,39.85
2022-08-26T22:25:14.593Z,34.97
2022-08-26T22:27:43.552Z,43.40
2022-08-26T22:30:12.631Z,85.47
2022-08-26T22:32:41.511Z,46.50
2022-08-26T22:35:29.323Z,63.50
2022-08-26T22:37:59.659Z,42.72
2022-08-26T22:40:31.130Z,52.70
2022-08-26T22:43:00.251Z,51.42
2022-08-26T22:45:34.407Z,59.30
2022-08-26T22:48:05.830Z,60.67
2022-08-26T22:50:34.537Z,56.67
2022-08-26T22:53:03.349Z,59.30
2022-08-26T22:55:32.010Z,58.97
2022-08-26T22:58:01.056Z,50.65
2022-08-26T23:00:31.987Z,49.85
2022-08-26T23:03:02.069Z,58.50
2022-08-26T23:05:31.801Z,55.95
2022-08-26T23:08:01.466Z,84.20
2022-08-26T23:10:31.129Z,109.03
2022-08-26T23:12:59.867Z,52.97
2022-08-26T23:15:29.262Z,54.88
2022-08-26T23:17:59.118Z,73.70
2022-08-26T23:20:29.033Z,49.15
2022-08-26T23:23:03.576Z,49.70
2022-08-26T23:25:33.452Z,47.17
2022-08-26T23:28:02.886Z,45.00
2022-08-26T23:30:33.266Z,44.20
2022-08-26T23:33:01.740Z,41.03
2022-08-26T23:35:30.825Z,66.22
2022-08-26T23:37:59.442Z,39.75
2022-08-26T23:40:33.480Z,42.60
2022-08-26T23:43:06.340Z,64.78
2022-08-26T23:45:36.427Z,44.58
2022-08-26T23:48:10.763Z,114.55
2022-08-26T23:53:26.468Z,37.50
2022-08-26T23:55:55.417Z,41.45
2022-08-26T23:58:24.060Z,88.60
